Time;durP1;ratioP1;P1;durP2;ratioP2;P2;SDS_P1;SDS_P2;PMS_P1;PMS_P2;Temp;Humidity;BMP_temperature;BMP_pressure;BME280_temperature;BME280_humidity;BME280_pressure;Samples;Min_cycle;Max_cycle;Signal;HPM_P1;HPM_P2
2022/12/11 00:01:14;;;;;;;42.88;20.42;;;;;;;;;;5002185;28;20181;-43
2022/12/11 00:03:40;;;;;;;45.65;17.58;;;;;;;;;;4998786;28;20182;-43
2022/12/11 00:06:07;;;;;;;35.85;15.95;;;;;;;;;;5000890;28;20196;-43
2022/12/11 00:08:33;;;;;;;44.50;17.88;;;;;;;;;;5001483;28;20169;-43
2022/12/11 00:10:59;;;;;;;50.50;21.00;;;;;;;;;;5004657;28;20259;-42
2022/12/11 00:13:25;;;;;;;48.75;18.10;;;;;;;;;;5003455;28;20279;-43
2022/12/11 00:15:51;;;;;;;51.53;19.53;;;;;;;;;;5005056;28;20295;-43
2022/12/11 00:18:17;;;;;;;48.70;19.80;;;;;;;;;;5001562;28;20416;-43
2022/12/11 00:20:43;;;;;;;58.40;19.67;;;;;;;;;;4997051;28;20412;-43
2022/12/11 00:23:11;;;;;;;65.75;20.95;;;;;;;;;;5004594;28;20773;-43
2022/12/11 00:25:44;;;;;;;53.38;19.80;;;;;;;;;;5002079;28;20219;-43
2022/12/11 00:28:12;;;;;;;61.25;21.05;;;;;;;;;;5003899;28;20243;-43
2022/12/11 00:30:39;;;;;;;53.35;19.52;;;;;;;;;;5001571;28;20161;-43
2022/12/11 00:33:05;;;;;;;46.17;18.27;;;;;;;;;;5002886;28;20181;-43
2022/12/11 00:35:31;;;;;;;63.73;20.70;;;;;;;;;;5001282;28;20326;-42
2022/12/11 00:37:57;;;;;;;49.43;20.70;;;;;;;;;;5001163;28;20420;-43
2022/12/11 00:40:23;;;;;;;57.97;18.85;;;;;;;;;;5005244;28;20419;-43
2022/12/11 00:42:49;;;;;;;69.97;24.27;;;;;;;;;;5000537;28;20187;-43
2022/12/11 00:45:15;;;;;;;51.63;19.80;;;;;;;;;;5001372;28;20805;-43
2022/12/11 00:47:41;;;;;;;62.37;18.17;;;;;;;;;;5001661;28;20483;-43
2022/12/11 00:50:08;;;;;;;55.30;18.50;;;;;;;;;;5000933;28;20412;-43
2022/12/11 00:52:34;;;;;;;50.33;17.40;;;;;;;;;;5000823;28;20412;-42
2022/12/11 00:54:59;;;;;;;41.40;17.53;;;;;;;;;;5006518;28;20710;-43
2022/12/11 00:57:27;;;;;;;46.60;18.23;;;;;;;;;;5003497;28;20841;-43
2022/12/11 00:59:56;;;;;;;51.17;17.58;;;;;;;;;;4997549;28;20439;-43
2022/12/11 01:02:22;;;;;;;55.85;17.38;;;;;;;;;;4998921;28;20184;-43
2022/12/11 01:04:48;;;;;;;55.03;19.60;;;;;;;;;;5002151;28;20181;-43
2022/12/11 01:07:14;;;;;;;48.07;16.67;;;;;;;;;;5003743;28;20411;-43
2022/12/11 01:12:27;;;;;;;52.03;18.27;;;;;;;;;;5001421;28;20491;-44
2022/12/11 01:14:53;;;;;;;48.28;17.58;;;;;;;;;;5001189;28;20219;-44
2022/12/11 01:17:19;;;;;;;58.23;17.70;;;;;;;;;;4999316;28;20177;-41
2022/12/11 01:19:45;;;;;;;47.20;18.77;;;;;;;;;;5002424;28;20411;-41
2022/12/11 01:22:11;;;;;;;58.90;19.67;;;;;;;;;;5003380;28;20415;-41
2022/12/11 01:24:37;;;;;;;54.17;18.10;;;;;;;;;;5000160;28;20185;-41
2022/12/11 01:27:03;;;;;;;56.72;21.30;;;;;;;;;;5002782;28;20407;-41
2022/12/11 01:29:29;;;;;;;47.35;18.00;;;;;;;;;;5000500;28;20173;-41
2022/12/11 01:31:55;;;;;;;52.27;19.90;;;;;;;;;;5001699;28;20228;-41
2022/12/11 01:34:21;;;;;;;44.70;18.17;;;;;;;;;;5000141;28;20989;-41
2022/12/11 01:36:47;;;;;;;60.53;21.27;;;;;;;;;;5006859;28;20514;-41
2022/12/11 01:39:13;;;;;;;63.30;20.73;;;;;;;;;;5002233;28;20752;-42
2022/12/11 01:41:39;;;;;;;49.57;19.10;;;;;;;;;;4998999;28;20283;-42
2022/12/11 01:44:28;;;;;;;56.67;18.65;;;;;;;;;;5001121;28;20809;-42
2022/12/11 01:46:54;;;;;;;60.60;19.73;;;;;;;;;;4999894;28;20197;-41
2022/12/11 01:49:22;;;;;;;60.70;20.02;;;;;;;;;;5000396;28;20169;-41
2022/12/11 01:51:48;;;;;;;67.50;19.95;;;;;;;;;;5001710;28;20181;-42
2022/12/11 01:54:14;;;;;;;67.30;20.77;;;;;;;;;;5003527;28;20300;-43
2022/12/11 01:56:41;;;;;;;51.53;21.65;;;;;;;;;;5003218;28;20489;-41
2022/12/11 01:59:10;;;;;;;66.35;21.45;;;;;;;;;;4998093;28;20212;-41
2022/12/11 02:01:39;;;;;;;83.15;22.40;;;;;;;;;;4994898;28;20199;-42
2022/12/11 02:04:06;;;;;;;75.35;21.77;;;;;;;;;;5002848;28;20180;-42
2022/12/11 02:06:32;;;;;;;68.70;22.50;;;;;;;;;;5000307;28;20193;-41
2022/12/11 02:08:58;;;;;;;69.83;20.67;;;;;;;;;;5002471;28;20227;-41
2022/12/11 02:11:27;;;;;;;75.82;23.45;;;;;;;;;;5007818;28;20454;-41
2022/12/11 02:13:56;;;;;;;71.20;20.75;;;;;;;;;;5004530;28;20295;-43
2022/12/11 02:16:30;;;;;;;76.97;24.10;;;;;;;;;;5001950;28;20689;-41
2022/12/11 02:19:31;;;;;;;77.20;21.38;;;;;;;;;;5004220;28;20188;-44
2022/12/11 02:21:58;;;;;;;90.53;26.60;;;;;;;;;;4981884;28;20185;-41
2022/12/11 02:24:24;;;;;;;67.32;20.60;;;;;;;;;;5002514;28;20196;-41
2022/12/11 02:27:25;;;;;;;79.70;21.67;;;;;;;;;;5000580;28;20585;-44
2022/12/11 02:29:53;;;;;;;66.53;20.90;;;;;;;;;;5016484;28;20418;-42
2022/12/11 02:32:25;;;;;;;90.80;24.00;;;;;;;;;;5010116;28;20251;-42
2022/12/11 02:34:56;;;;;;;70.57;21.23;;;;;;;;;;5003853;28;20661;-41
2022/12/11 02:37:24;;;;;;;72.50;21.83;;;;;;;;;;5004181;28;20169;-41
2022/12/11 02:39:52;;;;;;;65.68;21.63;;;;;;;;;;5005217;28;20541;-42
2022/12/11 02:42:20;;;;;;;75.22;23.02;;;;;;;;;;4997672;28;20169;-42
2022/12/11 02:44:47;;;;;;;90.80;24.75;;;;;;;;;;5003655;28;20184;-42
2022/12/11 02:47:14;;;;;;;76.55;21.83;;;;;;;;;;5002863;28;20217;-43
2022/12/11 02:49:42;;;;;;;82.80;21.92;;;;;;;;;;5008698;28;20223;-41
2022/12/11 02:52:10;;;;;;;74.40;22.05;;;;;;;;;;5003423;28;20239;-43
2022/12/11 02:54:37;;;;;;;89.85;27.58;;;;;;;;;;5000383;28;20202;-41
2022/12/11 02:57:18;;;;;;;76.38;23.65;;;;;;;;;;5003111;28;20655;-41
2022/12/11 02:59:45;;;;;;;78.20;22.95;;;;;;;;;;5004032;28;20227;-43
2022/12/11 03:02:15;;;;;;;78.60;22.77;;;;;;;;;;5006317;28;20168;-41
2022/12/11 03:04:41;;;;;;;75.97;21.83;;;;;;;;;;5003747;28;20608;-43
2022/12/11 03:07:12;;;;;;;80.78;23.73;;;;;;;;;;5005885;28;20189;-42
2022/12/11 03:09:39;;;;;;;79.80;24.88;;;;;;;;;;5005373;28;20183;-41
2022/12/11 03:12:07;;;;;;;76.85;22.58;;;;;;;;;;4999613;28;20184;-43
2022/12/11 03:14:33;;;;;;;77.65;23.30;;;;;;;;;;5005781;28;20192;-45
2022/12/11 03:17:04;;;;;;;76.22;22.77;;;;;;;;;;5003562;28;20247;-41
2022/12/11 03:19:35;;;;;;;67.97;21.45;;;;;;;;;;5002755;28;20256;-41
2022/12/11 03:22:24;;;;;;;84.93;24.98;;;;;;;;;;4993994;28;20178;-41
2022/12/11 03:24:52;;;;;;;74.25;25.45;;;;;;;;;;5001666;28;20195;-42
2022/12/11 03:27:27;;;;;;;67.88;23.00;;;;;;;;;;5002223;28;20718;-43
2022/12/11 03:30:01;;;;;;;73.15;24.08;;;;;;;;;;5004553;28;20184;-42
2022/12/11 03:32:29;;;;;;;77.15;21.67;;;;;;;;;;5004763;28;20263;-41
2022/12/11 03:35:00;;;;;;;85.40;25.65;;;;;;;;;;5006523;28;20291;-42
2022/12/11 03:37:28;;;;;;;81.57;24.65;;;;;;;;;;5003798;28;20593;-41
2022/12/11 03:39:58;;;;;;;68.93;23.60;;;;;;;;;;4998754;28;20189;-42
2022/12/11 03:42:24;;;;;;;76.40;24.08;;;;;;;;;;5005334;28;20602;-42
2022/12/11 03:44:51;;;;;;;78.50;22.63;;;;;;;;;;5003463;28;20216;-42
2022/12/11 03:47:20;;;;;;;82.05;23.50;;;;;;;;;;5004309;28;20168;-41
2022/12/11 03:49:47;;;;;;;76.25;22.80;;;;;;;;;;5003673;28;20200;-41
2022/12/11 03:52:14;;;;;;;80.97;22.65;;;;;;;;;;5003266;28;20182;-41
2022/12/11 03:54:43;;;;;;;76.93;23.73;;;;;;;;;;5003126;28;20192;-43
2022/12/11 03:57:11;;;;;;;58.90;18.65;;;;;;;;;;5001504;28;20189;-42
2022/12/11 03:59:37;;;;;;;58.08;21.58;;;;;;;;;;5008148;28;20176;-41
2022/12/11 04:02:09;;;;;;;79.05;22.40;;;;;;;;;;5002401;28;20172;-41
2022/12/11 04:04:36;;;;;;;74.20;20.60;;;;;;;;;;5000152;28;20712;-42
2022/12/11 04:07:02;;;;;;;54.33;18.80;;;;;;;;;;4993601;28;20257;-41
2022/12/11 04:09:28;;;;;;;56.43;21.57;;;;;;;;;;5001621;28;20262;-41
2022/12/11 04:11:54;;;;;;;63.07;19.80;;;;;;;;;;5001447;28;20426;-41
2022/12/11 04:17:05;;;;;;;53.97;19.35;;;;;;;;;;4996198;28;20426;-41
2022/12/11 04:25:03;;;;;;;50.60;19.77;;;;;;;;;;4990062;28;20315;-41
2022/12/11 04:30:15;;;;;;;50.45;17.52;;;;;;;;;;4997962;28;20725;-41
2022/12/11 04:32:41;;;;;;;47.97;18.33;;;;;;;;;;5000686;28;20224;-45
2022/12/11 04:35:07;;;;;;;51.83;17.10;;;;;;;;;;5002616;28;20192;-41
2022/12/11 04:37:33;;;;;;;46.10;17.38;;;;;;;;;;5000979;28;20541;-41
2022/12/11 04:39:59;;;;;;;47.60;17.73;;;;;;;;;;5002090;28;20200;-42
2022/12/11 04:42:25;;;;;;;53.00;17.90;;;;;;;;;;5001117;28;20211;-44
2022/12/11 04:44:51;;;;;;;52.97;18.17;;;;;;;;;;5006623;28;20414;-43
2022/12/11 04:47:17;;;;;;;54.23;17.13;;;;;;;;;;5002955;28;20188;-41
2022/12/11 04:49:44;;;;;;;45.17;17.13;;;;;;;;;;4998860;28;20506;-41
2022/12/11 04:52:10;;;;;;;44.75;17.27;;;;;;;;;;5000710;28;20420;-42
2022/12/11 04:54:41;;;;;;;50.90;16.97;;;;;;;;;;5000654;28;20200;-42
2022/12/11 04:57:06;;;;;;;54.45;17.50;;;;;;;;;;5003899;28;20420;-43
2022/12/11 04:59:33;;;;;;;53.53;18.07;;;;;;;;;;5002338;28;20555;-43
2022/12/11 05:02:00;;;;;;;47.22;17.40;;;;;;;;;;5005176;28;20459;-44
2022/12/11 05:04:31;;;;;;;49.30;18.00;;;;;;;;;;5002209;28;20172;-41
2022/12/11 05:06:57;;;;;;;52.33;18.20;;;;;;;;;;4996809;28;20196;-41
2022/12/11 05:09:23;;;;;;;54.80;17.87;;;;;;;;;;5004068;28;20188;-41
2022/12/11 05:11:49;;;;;;;39.85;16.83;;;;;;;;;;5001819;28;20416;-41
2022/12/11 05:14:14;;;;;;;42.37;17.70;;;;;;;;;;5002792;28;20279;-41
2022/12/11 05:16:40;;;;;;;50.83;20.70;;;;;;;;;;5000945;28;20428;-42
2022/12/11 05:19:06;;;;;;;49.40;17.33;;;;;;;;;;5002488;28;20408;-43
2022/12/11 05:21:32;;;;;;;43.50;18.50;;;;;;;;;;5001294;28;20446;-41
2022/12/11 05:23:58;;;;;;;47.80;16.97;;;;;;;;;;5000626;28;20968;-44
2022/12/11 05:26:24;;;;;;;44.70;19.33;;;;;;;;;;5004661;28;20534;-44
2022/12/11 05:28:52;;;;;;;46.33;17.47;;;;;;;;;;5000029;28;20786;-41
2022/12/11 05:31:19;;;;;;;42.53;15.10;;;;;;;;;;5000875;28;20447;-42
2022/12/11 05:33:46;;;;;;;47.85;16.92;;;;;;;;;;5001692;28;20247;-43
2022/12/11 05:36:14;;;;;;;43.22;15.60;;;;;;;;;;5000035;28;20189;-41
2022/12/11 05:38:40;;;;;;;41.92;17.63;;;;;;;;;;5001338;28;20204;-41
2022/12/11 05:41:06;;;;;;;50.07;16.90;;;;;;;;;;5005630;28;20220;-42
2022/12/11 05:43:33;;;;;;;42.58;17.48;;;;;;;;;;5004353;28;20419;-41
2022/12/11 05:46:07;;;;;;;46.63;17.92;;;;;;;;;;4999119;28;20697;-41
2022/12/11 05:48:33;;;;;;;39.05;17.67;;;;;;;;;;5001544;28;20653;-41
2022/12/11 05:51:00;;;;;;;47.90;16.98;;;;;;;;;;5007405;28;20187;-41
2022/12/11 05:53:27;;;;;;;39.47;15.77;;;;;;;;;;5006903;28;20172;-41
2022/12/11 05:55:53;;;;;;;47.17;17.13;;;;;;;;;;5006170;28;20208;-42
2022/12/11 05:58:20;;;;;;;43.20;14.87;;;;;;;;;;5005908;28;20184;-41
2022/12/11 06:00:46;;;;;;;49.63;16.73;;;;;;;;;;5007149;28;20447;-41
2022/12/11 06:03:12;;;;;;;43.10;16.40;;;;;;;;;;5002205;28;20180;-41
2022/12/11 06:05:39;;;;;;;47.28;16.10;;;;;;;;;;5006798;28;20200;-41
2022/12/11 06:08:05;;;;;;;41.88;17.92;;;;;;;;;;5005890;28;20181;-41
2022/12/11 06:10:31;;;;;;;38.05;17.83;;;;;;;;;;5004383;28;20550;-42
2022/12/11 06:12:57;;;;;;;34.15;14.90;;;;;;;;;;5006202;28;20171;-41
2022/12/11 06:15:23;;;;;;;34.73;16.03;;;;;;;;;;5003640;28;20591;-42
2022/12/11 06:17:49;;;;;;;41.15;15.00;;;;;;;;;;5004735;28;20411;-42
2022/12/11 06:20:15;;;;;;;35.67;15.17;;;;;;;;;;5003771;28;20204;-42
2022/12/11 06:22:41;;;;;;;42.90;17.23;;;;;;;;;;5009862;28;20973;-41
2022/12/11 06:25:07;;;;;;;45.07;18.10;;;;;;;;;;5004248;28;20204;-42
2022/12/11 06:27:34;;;;;;;34.63;16.23;;;;;;;;;;5002082;28;20462;-41
2022/12/11 06:30:00;;;;;;;31.63;14.10;;;;;;;;;;5005017;28;20542;-42
2022/12/11 06:32:26;;;;;;;36.40;17.00;;;;;;;;;;5003565;28;20204;-41
2022/12/11 06:34:52;;;;;;;42.22;15.65;;;;;;;;;;5005507;28;20687;-41
2022/12/11 06:37:18;;;;;;;27.60;12.90;;;;;;;;;;5007051;28;20180;-41
2022/12/11 06:39:44;;;;;;;31.17;13.23;;;;;;;;;;5008039;28;20411;-41
2022/12/11 06:42:10;;;;;;;24.33;12.70;;;;;;;;;;5003028;28;20399;-42
2022/12/11 06:44:36;;;;;;;32.63;14.63;;;;;;;;;;5000050;28;20820;-42
2022/12/11 06:47:04;;;;;;;26.00;14.03;;;;;;;;;;5006344;28;20468;-43
2022/12/11 06:49:30;;;;;;;30.70;14.82;;;;;;;;;;5005645;28;20734;-41
2022/12/11 06:51:56;;;;;;;34.60;15.43;;;;;;;;;;5005849;28;20752;-41
2022/12/11 06:54:26;;;;;;;30.27;15.40;;;;;;;;;;5004874;28;20961;-42
2022/12/11 06:56:52;;;;;;;29.05;13.48;;;;;;;;;;5005499;28;20470;-41
2022/12/11 06:59:18;;;;;;;29.20;12.83;;;;;;;;;;5002150;28;20642;-40
2022/12/11 07:01:44;;;;;;;31.63;14.15;;;;;;;;;;4998172;28;20899;-41
2022/12/11 07:04:10;;;;;;;29.48;12.38;;;;;;;;;;5006203;28;20537;-41
2022/12/11 07:06:36;;;;;;;25.70;12.27;;;;;;;;;;5002519;28;20209;-41
2022/12/11 07:09:06;;;;;;;27.63;13.33;;;;;;;;;;5006237;28;20889;-42
2022/12/11 07:11:32;;;;;;;29.30;13.85;;;;;;;;;;5003023;28;20928;-43
2022/12/11 07:13:59;;;;;;;24.13;12.65;;;;;;;;;;5005177;28;20209;-45
2022/12/11 07:16:25;;;;;;;25.55;12.30;;;;;;;;;;5001869;28;20301;-45
2022/12/11 07:18:51;;;;;;;32.73;14.30;;;;;;;;;;5005470;28;20181;-45
2022/12/11 07:21:19;;;;;;;28.23;14.02;;;;;;;;;;5005632;28;20415;-46
2022/12/11 07:23:45;;;;;;;29.10;13.60;;;;;;;;;;5001720;28;20726;-45
2022/12/11 07:26:13;;;;;;;24.58;11.95;;;;;;;;;;5003449;28;20200;-46
2022/12/11 07:28:39;;;;;;;27.38;13.32;;;;;;;;;;5003849;28;20172;-44
2022/12/11 07:31:09;;;;;;;29.50;15.13;;;;;;;;;;5003541;28;20161;-44
2022/12/11 07:33:35;;;;;;;32.95;13.88;;;;;;;;;;5003195;28;20259;-44
2022/12/11 07:36:03;;;;;;;29.50;13.65;;;;;;;;;;4998239;28;20204;-44
2022/12/11 07:38:29;;;;;;;30.42;14.10;;;;;;;;;;5006139;28;20234;-46
2022/12/11 07:44:00;;;;;;;37.92;15.75;;;;;;;;;;4999031;28;20409;-46
2022/12/11 07:46:26;;;;;;;31.38;14.20;;;;;;;;;;5006316;28;20199;-46
2022/12/11 07:48:52;;;;;;;26.92;14.75;;;;;;;;;;5003483;28;20250;-45
2022/12/11 07:51:31;;;;;;;30.27;14.48;;;;;;;;;;5004106;28;20622;-44
2022/12/11 07:54:01;;;;;;;27.73;14.13;;;;;;;;;;5004801;28;20451;-44
2022/12/11 07:56:28;;;;;;;29.23;13.30;;;;;;;;;;5002855;28;20749;-45
2022/12/11 07:58:54;;;;;;;30.10;14.02;;;;;;;;;;5003311;28;20188;-46
2022/12/11 08:01:27;;;;;;;28.58;13.70;;;;;;;;;;5002969;28;20259;-45
2022/12/11 08:03:54;;;;;;;32.20;14.15;;;;;;;;;;5007622;28;20220;-44
2022/12/11 08:06:20;;;;;;;31.33;13.30;;;;;;;;;;4991770;28;20205;-46
2022/12/11 08:08:46;;;;;;;27.17;12.43;;;;;;;;;;4993946;28;20177;-46
2022/12/11 08:11:14;;;;;;;26.67;13.25;;;;;;;;;;5002526;28;20180;-47
2022/12/11 08:13:40;;;;;;;32.03;14.65;;;;;;;;;;5001932;28;20199;-47
2022/12/11 08:16:07;;;;;;;30.38;14.40;;;;;;;;;;5005434;28;20214;-44
2022/12/11 08:18:34;;;;;;;30.80;14.70;;;;;;;;;;5003793;28;20208;-46
2022/12/11 08:21:07;;;;;;;27.88;14.45;;;;;;;;;;5006376;28;20216;-45
2022/12/11 08:23:34;;;;;;;27.90;13.73;;;;;;;;;;5004288;28;20266;-46
2022/12/11 08:26:01;;;;;;;33.38;15.02;;;;;;;;;;4997737;28;20199;-46
2022/12/11 08:28:27;;;;;;;28.83;13.30;;;;;;;;;;5006060;28;20175;-44
2022/12/11 08:30:53;;;;;;;28.40;13.70;;;;;;;;;;5003015;28;20178;-46
2022/12/11 08:33:19;;;;;;;32.73;14.83;;;;;;;;;;5003322;28;20443;-44
2022/12/11 08:35:46;;;;;;;26.50;12.13;;;;;;;;;;5003591;28;20424;-47
2022/12/11 08:38:12;;;;;;;25.73;13.50;;;;;;;;;;5002529;28;20444;-45
2022/12/11 08:40:38;;;;;;;29.70;12.70;;;;;;;;;;5002762;28;20669;-46
2022/12/11 08:43:04;;;;;;;27.73;13.50;;;;;;;;;;5002010;28;20408;-46
2022/12/11 08:45:30;;;;;;;28.40;12.23;;;;;;;;;;5006268;28;20525;-47
2022/12/11 08:47:56;;;;;;;32.00;14.57;;;;;;;;;;5000728;28;20243;-45
2022/12/11 08:50:21;;;;;;;30.30;14.23;;;;;;;;;;5001283;28;20421;-45
2022/12/11 08:52:48;;;;;;;27.50;13.30;;;;;;;;;;5002912;28;20550;-45
2022/12/11 08:55:13;;;;;;;27.00;13.32;;;;;;;;;;5001654;28;20514;-45
2022/12/11 08:57:39;;;;;;;26.40;13.10;;;;;;;;;;5001699;28;20202;-45
2022/12/11 09:00:07;;;;;;;32.73;12.80;;;;;;;;;;5005937;28;20416;-45
2022/12/11 09:02:33;;;;;;;31.65;14.65;;;;;;;;;;5004819;28;20964;-44
2022/12/11 09:04:59;;;;;;;30.33;13.00;;;;;;;;;;4998753;28;20295;-43
2022/12/11 09:07:26;;;;;;;26.53;13.17;;;;;;;;;;4998302;28;20420;-46
2022/12/11 09:09:54;;;;;;;33.30;14.57;;;;;;;;;;5003776;28;20415;-46
2022/12/11 09:12:20;;;;;;;29.15;13.32;;;;;;;;;;5004294;28;20453;-45
2022/12/11 09:14:46;;;;;;;28.98;13.90;;;;;;;;;;5002832;28;20204;-46
2022/12/11 09:17:12;;;;;;;28.50;15.65;;;;;;;;;;5003244;28;20177;-46
2022/12/11 09:19:38;;;;;;;26.73;13.32;;;;;;;;;;5003084;28;20192;-44
2022/12/11 09:22:04;;;;;;;33.93;13.47;;;;;;;;;;4996849;28;20221;-46
2022/12/11 09:24:30;;;;;;;27.30;13.33;;;;;;;;;;5004957;28;20419;-46
2022/12/11 09:26:56;;;;;;;26.63;14.00;;;;;;;;;;5001647;28;20579;-46
2022/12/11 09:29:22;;;;;;;28.60;12.80;;;;;;;;;;5002479;28;20755;-46
2022/12/11 09:31:48;;;;;;;31.23;15.82;;;;;;;;;;5002954;28;20414;-44
2022/12/11 09:34:14;;;;;;;34.58;15.30;;;;;;;;;;5001210;28;20195;-45
2022/12/11 09:36:42;;;;;;;21.93;12.87;;;;;;;;;;5001328;28;20242;-44
2022/12/11 09:39:09;;;;;;;31.70;15.52;;;;;;;;;;5001604;28;20408;-46
2022/12/11 09:41:39;;;;;;;33.03;15.43;;;;;;;;;;5006551;28;20657;-45
2022/12/11 09:44:20;;;;;;;32.80;13.00;;;;;;;;;;4993440;28;20684;-45
2022/12/11 09:46:46;;;;;;;32.53;14.02;;;;;;;;;;4998110;28;20200;-46
2022/12/11 09:49:35;;;;;;;28.05;14.90;;;;;;;;;;4999618;28;20562;-46
2022/12/11 09:52:34;;;;;;;22.42;13.88;;;;;;;;;;4994658;28;20203;-45
2022/12/11 09:55:02;;;;;;;27.30;13.65;;;;;;;;;;5010413;28;20224;-45
2022/12/11 09:57:45;;;;;;;26.65;14.75;;;;;;;;;;5000947;28;20219;-45
2022/12/11 10:00:20;;;;;;;29.48;14.27;;;;;;;;;;4994503;28;20630;-44
2022/12/11 10:02:45;;;;;;;24.83;13.30;;;;;;;;;;5001281;28;20176;-44
2022/12/11 10:05:17;;;;;;;29.03;14.67;;;;;;;;;;5000780;28;20195;-44
2022/12/11 10:08:02;;;;;;;32.58;14.52;;;;;;;;;;5001424;28;20408;-46
2022/12/11 10:10:31;;;;;;;29.10;13.98;;;;;;;;;;5002589;28;20232;-44
2022/12/11 10:13:00;;;;;;;26.40;14.05;;;;;;;;;;5004240;28;20188;-44
2022/12/11 10:15:35;;;;;;;26.23;13.75;;;;;;;;;;5001801;28;20236;-45
2022/12/11 10:18:03;;;;;;;29.30;14.88;;;;;;;;;;4996904;28;20168;-46
2022/12/11 10:20:39;;;;;;;35.78;14.93;;;;;;;;;;5004162;28;20672;-45
2022/12/11 10:23:09;;;;;;;29.33;14.18;;;;;;;;;;4995254;28;20266;-44
2022/12/11 10:25:36;;;;;;;28.08;14.95;;;;;;;;;;5000487;28;20239;-46
2022/12/11 10:28:13;;;;;;;29.52;14.73;;;;;;;;;;4992988;28;20180;-46
2022/12/11 10:30:41;;;;;;;29.90;14.95;;;;;;;;;;5001391;28;20169;-46
2022/12/11 10:33:10;;;;;;;29.58;13.30;;;;;;;;;;4996659;28;20173;-46
2022/12/11 10:35:43;;;;;;;27.67;14.65;;;;;;;;;;5004473;28;20279;-46
2022/12/11 10:38:14;;;;;;;30.60;15.65;;;;;;;;;;5008530;28;20180;-46
2022/12/11 10:40:42;;;;;;;31.52;14.10;;;;;;;;;;4995661;28;20178;-43
2022/12/11 10:43:09;;;;;;;28.92;15.20;;;;;;;;;;5003555;28;20191;-46
2022/12/11 10:45:36;;;;;;;34.13;14.43;;;;;;;;;;5000314;28;20220;-45
2022/12/11 10:48:03;;;;;;;28.58;13.38;;;;;;;;;;4999209;28;20262;-46
2022/12/11 10:50:29;;;;;;;29.38;12.35;;;;;;;;;;5005666;28;20173;-46
2022/12/11 10:52:56;;;;;;;26.27;13.70;;;;;;;;;;5006772;28;20183;-46
2022/12/11 10:55:25;;;;;;;28.70;13.70;;;;;;;;;;5004967;28;20487;-44
2022/12/11 10:57:55;;;;;;;28.65;14.27;;;;;;;;;;5006575;28;20658;-46
2022/12/11 11:00:31;;;;;;;26.85;13.10;;;;;;;;;;5003253;28;20173;-46
2022/12/11 11:02:57;;;;;;;26.58;12.75;;;;;;;;;;5004077;28;20167;-46
2022/12/11 11:05:33;;;;;;;23.42;12.00;;;;;;;;;;5007641;28;20200;-45
2022/12/11 11:08:18;;;;;;;17.90;10.68;;;;;;;;;;5002744;28;20202;-46
2022/12/11 11:10:50;;;;;;;17.02;10.88;;;;;;;;;;5001294;28;20177;-46
2022/12/11 11:13:16;;;;;;;24.40;12.30;;;;;;;;;;5002626;28;20229;-46
2022/12/11 11:15:42;;;;;;;20.00;10.60;;;;;;;;;;5004033;28;20201;-46
2022/12/11 11:18:16;;;;;;;17.23;10.18;;;;;;;;;;5005269;28;20414;-46
2022/12/11 11:20:46;;;;;;;19.48;10.95;;;;;;;;;;5003395;28;20188;-44
2022/12/11 11:23:13;;;;;;;23.83;12.50;;;;;;;;;;5006075;28;20243;-46
2022/12/11 11:25:39;;;;;;;28.33;10.80;;;;;;;;;;5006515;28;20757;-46
2022/12/11 11:28:07;;;;;;;21.30;11.53;;;;;;;;;;5000184;28;20211;-46
2022/12/11 11:30:35;;;;;;;21.88;13.23;;;;;;;;;;5006555;28;20956;-46
2022/12/11 11:33:05;;;;;;;27.75;11.50;;;;;;;;;;5004200;28;20272;-46
2022/12/11 11:35:32;;;;;;;19.13;10.82;;;;;;;;;;5002645;28;20651;-45
2022/12/11 11:38:12;;;;;;;22.83;12.15;;;;;;;;;;5005279;28;20372;-47
2022/12/11 11:40:47;;;;;;;27.90;12.80;;;;;;;;;;5003170;28;20169;-45
2022/12/11 11:43:34;;;;;;;28.13;13.52;;;;;;;;;;4995641;28;20536;-45
2022/12/11 11:46:12;;;;;;;23.65;11.65;;;;;;;;;;5004733;28;20258;-45
2022/12/11 11:48:59;;;;;;;23.02;11.52;;;;;;;;;;5004373;28;20185;-46
2022/12/11 11:51:37;;;;;;;20.05;12.43;;;;;;;;;;5002553;28;20180;-45
2022/12/11 11:54:08;;;;;;;24.55;13.23;;;;;;;;;;5000377;28;20200;-46
2022/12/11 11:56:36;;;;;;;18.80;10.77;;;;;;;;;;5003037;28;20204;-46
2022/12/11 11:59:02;;;;;;;20.83;12.10;;;;;;;;;;4995413;28;20184;-46
2022/12/11 12:01:28;;;;;;;13.37;9.17;;;;;;;;;;5007388;28;20173;-44
2022/12/11 12:03:54;;;;;;;21.23;10.38;;;;;;;;;;5001973;28;20478;-45
2022/12/11 12:06:30;;;;;;;18.88;10.82;;;;;;;;;;5002320;28;20193;-44
2022/12/11 12:09:10;;;;;;;19.65;9.27;;;;;;;;;;5003565;28;20186;-46
2022/12/11 12:11:48;;;;;;;18.80;10.40;;;;;;;;;;5009314;28;20181;-45
2022/12/11 12:14:14;;;;;;;17.15;9.60;;;;;;;;;;5004775;28;20286;-45
2022/12/11 12:16:46;;;;;;;17.40;9.33;;;;;;;;;;5001358;28;20243;-44
2022/12/11 12:19:15;;;;;;;17.15;10.23;;;;;;;;;;5004820;28;20488;-44
2022/12/11 12:21:44;;;;;;;18.60;9.88;;;;;;;;;;5004603;28;20186;-44
2022/12/11 12:24:16;;;;;;;22.27;10.82;;;;;;;;;;4998571;28;20456;-45
2022/12/11 12:26:47;;;;;;;14.35;9.18;;;;;;;;;;5004166;28;20619;-44
2022/12/11 12:29:42;;;;;;;19.75;10.38;;;;;;;;;;5005127;28;20172;-46
2022/12/11 12:32:11;;;;;;;18.73;9.68;;;;;;;;;;4995373;28;20183;-45
2022/12/11 12:34:46;;;;;;;20.40;10.20;;;;;;;;;;4999790;28;20207;-46
2022/12/11 12:37:21;;;;;;;20.88;10.43;;;;;;;;;;5001637;28;20200;-45
2022/12/11 12:39:59;;;;;;;22.00;10.35;;;;;;;;;;5003424;28;20168;-45
2022/12/11 12:42:37;;;;;;;21.17;9.68;;;;;;;;;;5004298;28;20314;-45
2022/12/11 12:45:12;;;;;;;21.00;10.90;;;;;;;;;;4993754;28;20678;-46
2022/12/11 12:47:38;;;;;;;18.10;10.57;;;;;;;;;;4995430;28;20236;-44
2022/12/11 12:50:09;;;;;;;19.65;11.60;;;;;;;;;;5002145;28;20441;-44
2022/12/11 12:52:39;;;;;;;21.45;12.02;;;;;;;;;;5005558;28;20191;-43
2022/12/11 12:55:17;;;;;;;18.15;11.32;;;;;;;;;;5000857;28;20690;-43
2022/12/11 12:57:54;;;;;;;20.80;10.82;;;;;;;;;;5008974;28;20164;-43
2022/12/11 13:00:34;;;;;;;20.10;10.85;;;;;;;;;;5003640;28;20208;-43
2022/12/11 13:03:01;;;;;;;19.95;10.50;;;;;;;;;;4999116;28;20172;-43
2022/12/11 13:05:32;;;;;;;18.92;10.80;;;;;;;;;;4998172;28;20300;-43
2022/12/11 13:08:02;;;;;;;20.38;10.55;;;;;;;;;;5003907;28;20241;-43
2022/12/11 13:10:28;;;;;;;21.05;12.30;;;;;;;;;;5003606;28;20386;-44
2022/12/11 13:12:54;;;;;;;23.53;11.03;;;;;;;;;;5003266;28;20172;-42
2022/12/11 13:15:39;;;;;;;18.38;10.45;;;;;;;;;;5002313;28;21201;-41
2022/12/11 13:18:26;;;;;;;20.15;11.05;;;;;;;;;;4998027;28;20256;-43
2022/12/11 13:20:52;;;;;;;20.92;11.15;;;;;;;;;;5001767;28;20176;-42
2022/12/11 13:23:28;;;;;;;22.20;10.88;;;;;;;;;;5000588;28;20185;-41
2022/12/11 13:25:56;;;;;;;28.80;11.43;;;;;;;;;;5006426;28;20231;-42
2022/12/11 13:28:24;;;;;;;19.38;12.25;;;;;;;;;;5003159;28;20588;-43
2022/12/11 13:31:11;;;;;;;21.73;11.80;;;;;;;;;;4998970;28;20210;-43
2022/12/11 13:33:45;;;;;;;25.00;11.38;;;;;;;;;;4999555;28;20188;-42
2022/12/11 13:36:11;;;;;;;21.40;11.65;;;;;;;;;;5003561;28;20200;-42
2022/12/11 13:38:38;;;;;;;27.63;13.10;;;;;;;;;;5001717;28;20175;-42
2022/12/11 13:41:09;;;;;;;20.13;10.82;;;;;;;;;;5003753;28;20411;-42
2022/12/11 13:43:36;;;;;;;24.27;13.05;;;;;;;;;;4997109;28;20168;-42
2022/12/11 13:46:06;;;;;;;28.77;13.00;;;;;;;;;;4997150;28;20207;-42
2022/12/11 13:48:35;;;;;;;24.70;11.98;;;;;;;;;;5001308;28;20176;-42
2022/12/11 13:51:02;;;;;;;28.25;13.80;;;;;;;;;;5000586;28;20203;-42
2022/12/11 13:53:28;;;;;;;23.45;12.25;;;;;;;;;;5005487;28;20229;-42
2022/12/11 13:56:01;;;;;;;22.30;11.43;;;;;;;;;;4999748;28;20217;-42
2022/12/11 13:58:28;;;;;;;23.73;12.65;;;;;;;;;;4999552;28;20177;-41
2022/12/11 14:00:54;;;;;;;25.58;12.93;;;;;;;;;;5001520;28;20657;-43
2022/12/11 14:03:20;;;;;;;25.30;13.30;;;;;;;;;;5000216;28;20196;-42
2022/12/11 14:05:46;;;;;;;21.23;11.80;;;;;;;;;;4990512;28;20494;-42
2022/12/11 14:08:17;;;;;;;25.63;13.30;;;;;;;;;;5003305;28;20180;-41
2022/12/11 14:10:43;;;;;;;30.48;13.20;;;;;;;;;;5009012;28;20411;-43
2022/12/11 14:13:35;;;;;;;21.93;11.80;;;;;;;;;;5007162;28;20267;-43
2022/12/11 14:16:01;;;;;;;22.75;12.00;;;;;;;;;;5000662;28;20466;-41
2022/12/11 14:18:29;;;;;;;24.35;13.32;;;;;;;;;;5007011;28;20184;-43
2022/12/11 14:20:59;;;;;;;24.10;12.82;;;;;;;;;;5005510;28;20195;-43
2022/12/11 14:23:27;;;;;;;18.98;10.90;;;;;;;;;;5005402;28;20255;-41
2022/12/11 14:25:54;;;;;;;28.35;14.57;;;;;;;;;;5005162;28;20571;-42
2022/12/11 14:28:20;;;;;;;26.55;12.13;;;;;;;;;;5002136;28;20184;-43
2022/12/11 14:30:50;;;;;;;25.60;12.95;;;;;;;;;;5003371;28;20183;-43
2022/12/11 14:33:17;;;;;;;24.13;12.10;;;;;;;;;;5003560;28;20180;-43
2022/12/11 14:35:43;;;;;;;20.52;12.60;;;;;;;;;;5008435;28;20212;-42
2022/12/11 14:38:16;;;;;;;25.15;13.32;;;;;;;;;;5004622;28;20179;-42
2022/12/11 14:40:44;;;;;;;23.95;12.50;;;;;;;;;;5002018;28;20532;-41
2022/12/11 14:43:22;;;;;;;25.33;11.50;;;;;;;;;;5003523;28;20173;-41